sensor_id;sensor_type;location;lat;lon;timestamp;temperature;humidity
71436;SHT31;59251;51.326;12.370;2023-08-06T00:00:20;17.28;88.42
71436;SHT31;59251;51.326;12.370;2023-08-06T00:02:47;17.20;88.68
71436;SHT31;59251;51.326;12.370;2023-08-06T00:05:15;17.24;88.62
71436;SHT31;59251;51.326;12.370;2023-08-06T00:07:43;17.21;88.62
71436;SHT31;59251;51.326;12.370;2023-08-06T00:10:10;17.19;88.83
71436;SHT31;59251;51.326;12.370;2023-08-06T00:12:36;17.21;88.77
71436;SHT31;59251;51.326;12.370;2023-08-06T00:15:04;17.19;88.85
71436;SHT31;59251;51.326;12.370;2023-08-06T00:17:31;17.12;88.94
71436;SHT31;59251;51.326;12.370;2023-08-06T00:19:57;17.07;89.14
71436;SHT31;59251;51.326;12.370;2023-08-06T00:22:31;17.04;89.34
71436;SHT31;59251;51.326;12.370;2023-08-06T00:24:58;17.04;89.42
71436;SHT31;59251;51.326;12.370;2023-08-06T00:27:24;17.10;89.25
71436;SHT31;59251;51.326;12.370;2023-08-06T00:29:51;17.10;89.56
71436;SHT31;59251;51.326;12.370;2023-08-06T00:32:18;17.12;89.32
71436;SHT31;59251;51.326;12.370;2023-08-06T00:34:45;17.19;88.98
71436;SHT31;59251;51.326;12.370;2023-08-06T00:37:13;17.13;89.21
71436;SHT31;59251;51.326;12.370;2023-08-06T00:39:41;17.16;89.14
71436;SHT31;59251;51.326;12.370;2023-08-06T00:42:08;17.12;89.21
71436;SHT31;59251;51.326;12.370;2023-08-06T00:44:34;17.07;89.35
71436;SHT31;59251;51.326;12.370;2023-08-06T00:47:01;17.04;89.75
71436;SHT31;59251;51.326;12.370;2023-08-06T00:49:28;17.02;89.87
71436;SHT31;59251;51.326;12.370;2023-08-06T00:51:57;17.03;89.65
71436;SHT31;59251;51.326;12.370;2023-08-06T00:54:25;17.03;89.71
71436;SHT31;59251;51.326;12.370;2023-08-06T00:56:54;16.97;89.74
71436;SHT31;59251;51.326;12.370;2023-08-06T00:59:24;16.97;89.87
71436;SHT31;59251;51.326;12.370;2023-08-06T01:01:51;16.94;89.92
71436;SHT31;59251;51.326;12.370;2023-08-06T01:04:18;17.00;89.78
71436;SHT31;59251;51.326;12.370;2023-08-06T01:06:48;17.02;89.77
71436;SHT31;59251;51.326;12.370;2023-08-06T01:09:25;17.06;89.61
71436;SHT31;59251;51.326;12.370;2023-08-06T01:12:00;17.04;89.67
71436;SHT31;59251;51.326;12.370;2023-08-06T01:14:36;17.10;89.60
71436;SHT31;59251;51.326;12.370;2023-08-06T01:17:04;17.10;89.66
71436;SHT31;59251;51.326;12.370;2023-08-06T01:19:31;17.16;89.49
71436;SHT31;59251;51.326;12.370;2023-08-06T01:21:59;17.09;89.62
71436;SHT31;59251;51.326;12.370;2023-08-06T01:24:26;17.16;89.46
71436;SHT31;59251;51.326;12.370;2023-08-06T01:26:59;17.09;89.78
71436;SHT31;59251;51.326;12.370;2023-08-06T01:29:33;17.09;89.92
71436;SHT31;59251;51.326;12.370;2023-08-06T01:32:02;17.04;89.97
71436;SHT31;59251;51.326;12.370;2023-08-06T01:34:32;17.07;89.83
71436;SHT31;59251;51.326;12.370;2023-08-06T01:37:02;17.12;89.87
71436;SHT31;59251;51.326;12.370;2023-08-06T01:39:29;17.13;89.69
71436;SHT31;59251;51.326;12.370;2023-08-06T01:41:56;17.14;89.84
71436;SHT31;59251;51.326;12.370;2023-08-06T01:44:23;17.12;90.03
71436;SHT31;59251;51.326;12.370;2023-08-06T01:46:49;17.12;90.01
71436;SHT31;59251;51.326;12.370;2023-08-06T01:49:16;17.02;90.30
71436;SHT31;59251;51.326;12.370;2023-08-06T01:51:43;16.86;90.71
71436;SHT31;59251;51.326;12.370;2023-08-06T01:54:11;16.90;90.66
71436;SHT31;59251;51.326;12.370;2023-08-06T01:56:38;16.82;90.99
71436;SHT31;59251;51.326;12.370;2023-08-06T01:59:04;16.77;91.20
71436;SHT31;59251;51.326;12.370;2023-08-06T02:01:31;16.84;90.98
71436;SHT31;59251;51.326;12.370;2023-08-06T02:03:58;16.79;91.13
71436;SHT31;59251;51.326;12.370;2023-08-06T02:06:24;16.89;91.15
71436;SHT31;59251;51.326;12.370;2023-08-06T02:08:51;16.90;90.95
71436;SHT31;59251;51.326;12.370;2023-08-06T02:11:19;16.86;91.09
71436;SHT31;59251;51.326;12.370;2023-08-06T02:13:46;16.82;91.35
71436;SHT31;59251;51.326;12.370;2023-08-06T02:16:17;16.80;91.86
71436;SHT31;59251;51.326;12.370;2023-08-06T02:18:44;16.77;91.78
71436;SHT31;59251;51.326;12.370;2023-08-06T02:21:10;16.73;92.21
71436;SHT31;59251;51.326;12.370;2023-08-06T02:23:37;16.77;92.19
71436;SHT31;59251;51.326;12.370;2023-08-06T02:26:04;16.66;92.55
71436;SHT31;59251;51.326;12.370;2023-08-06T02:28:32;16.72;92.87
71436;SHT31;59251;51.326;12.370;2023-08-06T02:30:59;16.71;92.59
71436;SHT31;59251;51.326;12.370;2023-08-06T02:33:26;16.73;93.06
71436;SHT31;59251;51.326;12.370;2023-08-06T02:36:01;16.66;93.41
71436;SHT31;59251;51.326;12.370;2023-08-06T02:38:29;16.58;93.39
71436;SHT31;59251;51.326;12.370;2023-08-06T02:40:56;16.59;94.02
71436;SHT31;59251;51.326;12.370;2023-08-06T02:43:23;16.61;94.08
71436;SHT31;59251;51.326;12.370;2023-08-06T02:45:51;16.49;93.96
71436;SHT31;59251;51.326;12.370;2023-08-06T02:48:18;16.41;94.37
71436;SHT31;59251;51.326;12.370;2023-08-06T02:50:45;16.41;94.72
71436;SHT31;59251;51.326;12.370;2023-08-06T02:53:11;16.40;94.44
71436;SHT31;59251;51.326;12.370;2023-08-06T02:55:45;16.42;94.34
71436;SHT31;59251;51.326;12.370;2023-08-06T02:58:13;16.48;94.51
71436;SHT31;59251;51.326;12.370;2023-08-06T03:00:45;16.45;94.88
71436;SHT31;59251;51.326;12.370;2023-08-06T03:03:15;16.49;94.76
71436;SHT31;59251;51.326;12.370;2023-08-06T03:05:52;16.51;94.92
71436;SHT31;59251;51.326;12.370;2023-08-06T03:08:25;16.51;95.30
71436;SHT31;59251;51.326;12.370;2023-08-06T03:10:52;16.55;95.47
71436;SHT31;59251;51.326;12.370;2023-08-06T03:13:19;16.45;94.96
71436;SHT31;59251;51.326;12.370;2023-08-06T03:15:52;16.35;95.76
71436;SHT31;59251;51.326;12.370;2023-08-06T03:18:20;16.40;95.50
71436;SHT31;59251;51.326;12.370;2023-08-06T03:20:49;16.34;95.65
71436;SHT31;59251;51.326;12.370;2023-08-06T03:23:17;16.42;95.33
71436;SHT31;59251;51.326;12.370;2023-08-06T03:25:44;16.34;95.73
71436;SHT31;59251;51.326;12.370;2023-08-06T03:28:12;16.27;96.03
71436;SHT31;59251;51.326;12.370;2023-08-06T03:30:39;16.31;95.81
71436;SHT31;59251;51.326;12.370;2023-08-06T03:33:08;16.31;95.91
71436;SHT31;59251;51.326;12.370;2023-08-06T03:35:36;16.38;95.49
71436;SHT31;59251;51.326;12.370;2023-08-06T03:38:03;16.42;94.83
71436;SHT31;59251;51.326;12.370;2023-08-06T03:40:30;16.24;95.72
71436;SHT31;59251;51.326;12.370;2023-08-06T03:42:58;16.27;95.75
71436;SHT31;59251;51.326;12.370;2023-08-06T03:45:25;16.18;95.97
71436;SHT31;59251;51.326;12.370;2023-08-06T03:47:51;16.25;95.80
71436;SHT31;59251;51.326;12.370;2023-08-06T03:50:18;16.28;95.80
71436;SHT31;59251;51.326;12.370;2023-08-06T03:52:47;16.21;95.85
71436;SHT31;59251;51.326;12.370;2023-08-06T03:55:14;16.31;95.51
71436;SHT31;59251;51.326;12.370;2023-08-06T03:57:40;16.27;95.73
71436;SHT31;59251;51.326;12.370;2023-08-06T04:00:08;16.44;95.21
71436;SHT31;59251;51.326;12.370;2023-08-06T04:02:41;16.20;96.08
71436;SHT31;59251;51.326;12.370;2023-08-06T04:05:10;16.17;96.27
71436;SHT31;59251;51.326;12.370;2023-08-06T04:07:37;16.10;96.59
71436;SHT31;59251;51.326;12.370;2023-08-06T04:10:05;16.13;96.74
71436;SHT31;59251;51.326;12.370;2023-08-06T04:12:32;16.10;96.89
71436;SHT31;59251;51.326;12.370;2023-08-06T04:15:02;16.08;96.87
71436;SHT31;59251;51.326;12.370;2023-08-06T04:17:29;16.13;97.09
71436;SHT31;59251;51.326;12.370;2023-08-06T04:19:56;16.11;97.33
71436;SHT31;59251;51.326;12.370;2023-08-06T04:22:24;16.04;97.70
71436;SHT31;59251;51.326;12.370;2023-08-06T04:24:51;16.00;97.60
71436;SHT31;59251;51.326;12.370;2023-08-06T04:27:19;16.03;97.13
71436;SHT31;59251;51.326;12.370;2023-08-06T04:29:47;15.97;97.44
71436;SHT31;59251;51.326;12.370;2023-08-06T04:32:14;15.94;97.27
71436;SHT31;59251;51.326;12.370;2023-08-06T04:34:46;16.03;97.16
71436;SHT31;59251;51.326;12.370;2023-08-06T04:37:13;15.90;97.44
71436;SHT31;59251;51.326;12.370;2023-08-06T04:39:40;15.85;97.46
71436;SHT31;59251;51.326;12.370;2023-08-06T04:42:06;15.87;97.46
71436;SHT31;59251;51.326;12.370;2023-08-06T04:44:34;15.86;97.11
71436;SHT31;59251;51.326;12.370;2023-08-06T04:47:01;15.83;96.51
71436;SHT31;59251;51.326;12.370;2023-08-06T04:49:28;15.73;96.09
71436;SHT31;59251;51.326;12.370;2023-08-06T04:51:55;15.77;95.99
71436;SHT31;59251;51.326;12.370;2023-08-06T04:54:21;15.67;96.16
71436;SHT31;59251;51.326;12.370;2023-08-06T04:56:48;15.73;95.71
71436;SHT31;59251;51.326;12.370;2023-08-06T04:59:15;15.73;95.80
71436;SHT31;59251;51.326;12.370;2023-08-06T05:01:43;15.67;95.50
71436;SHT31;59251;51.326;12.370;2023-08-06T05:04:09;15.58;96.28
71436;SHT31;59251;51.326;12.370;2023-08-06T05:06:36;15.58;96.47
71436;SHT31;59251;51.326;12.370;2023-08-06T05:09:04;15.56;96.51
71436;SHT31;59251;51.326;12.370;2023-08-06T05:11:31;15.63;96.23
71436;SHT31;59251;51.326;12.370;2023-08-06T05:13:58;15.56;96.18
71436;SHT31;59251;51.326;12.370;2023-08-06T05:16:24;15.71;96.07
71436;SHT31;59251;51.326;12.370;2023-08-06T05:18:52;15.67;96.08
71436;SHT31;59251;51.326;12.370;2023-08-06T05:21:19;15.71;95.93
71436;SHT31;59251;51.326;12.370;2023-08-06T05:23:46;15.70;96.26
71436;SHT31;59251;51.326;12.370;2023-08-06T05:26:12;15.70;96.07
71436;SHT31;59251;51.326;12.370;2023-08-06T05:28:41;15.73;96.11
71436;SHT31;59251;51.326;12.370;2023-08-06T05:31:07;15.74;95.90
71436;SHT31;59251;51.326;12.370;2023-08-06T05:33:34;15.77;96.07
71436;SHT31;59251;51.326;12.370;2023-08-06T05:36:03;15.80;95.75
71436;SHT31;59251;51.326;12.370;2023-08-06T05:38:30;15.86;95.12
71436;SHT31;59251;51.326;12.370;2023-08-06T05:40:56;15.87;95.26
71436;SHT31;59251;51.326;12.370;2023-08-06T05:43:23;15.91;95.02
71436;SHT31;59251;51.326;12.370;2023-08-06T05:45:50;15.90;95.18
71436;SHT31;59251;51.326;12.370;2023-08-06T05:48:17;15.96;94.85
71436;SHT31;59251;51.326;12.370;2023-08-06T05:50:43;16.00;94.85
71436;SHT31;59251;51.326;12.370;2023-08-06T05:53:11;16.01;94.48
71436;SHT31;59251;51.326;12.370;2023-08-06T05:55:38;16.03;94.60
71436;SHT31;59251;51.326;12.370;2023-08-06T05:58:05;16.01;95.21
71436;SHT31;59251;51.326;12.370;2023-08-06T06:00:32;16.11;94.35
71436;SHT31;59251;51.326;12.370;2023-08-06T06:03:00;16.08;94.90
71436;SHT31;59251;51.326;12.370;2023-08-06T06:05:27;16.18;94.69
71436;SHT31;59251;51.326;12.370;2023-08-06T06:07:53;16.29;93.78
71436;SHT31;59251;51.326;12.370;2023-08-06T06:10:21;16.22;94.39
71436;SHT31;59251;51.326;12.370;2023-08-06T06:12:48;16.32;94.32
71436;SHT31;59251;51.326;12.370;2023-08-06T06:15:15;16.49;93.35
71436;SHT31;59251;51.326;12.370;2023-08-06T06:17:41;16.55;92.88
71436;SHT31;59251;51.326;12.370;2023-08-06T06:20:08;16.56;93.02
71436;SHT31;59251;51.326;12.370;2023-08-06T06:22:35;16.65;92.78
71436;SHT31;59251;51.326;12.370;2023-08-06T06:25:02;16.61;92.62
71436;SHT31;59251;51.326;12.370;2023-08-06T06:27:30;16.75;91.99
71436;SHT31;59251;51.326;12.370;2023-08-06T06:29:57;16.75;91.13
71436;SHT31;59251;51.326;12.370;2023-08-06T06:32:23;16.80;91.15
71436;SHT31;59251;51.326;12.370;2023-08-06T06:34:50;16.66;90.04
71436;SHT31;59251;51.326;12.370;2023-08-06T06:37:17;16.68;90.85
71436;SHT31;59251;51.326;12.370;2023-08-06T06:39:43;16.68;89.88
71436;SHT31;59251;51.326;12.370;2023-08-06T06:42:10;16.76;90.08
71436;SHT31;59251;51.326;12.370;2023-08-06T06:44:44;16.82;89.40
71436;SHT31;59251;51.326;12.370;2023-08-06T06:47:11;16.83;89.46
71436;SHT31;59251;51.326;12.370;2023-08-06T06:49:37;16.90;89.54
71436;SHT31;59251;51.326;12.370;2023-08-06T06:52:05;16.87;89.09
71436;SHT31;59251;51.326;12.370;2023-08-06T06:54:30;16.90;88.87
71436;SHT31;59251;51.326;12.370;2023-08-06T06:56:57;16.94;89.03
71436;SHT31;59251;51.326;12.370;2023-08-06T06:59:24;17.02;88.69
71436;SHT31;59251;51.326;12.370;2023-08-06T07:01:52;17.03;89.08
71436;SHT31;59251;51.326;12.370;2023-08-06T07:04:18;17.04;88.81
71436;SHT31;59251;51.326;12.370;2023-08-06T07:06:45;16.97;88.53
71436;SHT31;59251;51.326;12.370;2023-08-06T07:09:12;16.97;88.93
71436;SHT31;59251;51.326;12.370;2023-08-06T07:11:38;17.16;87.95
71436;SHT31;59251;51.326;12.370;2023-08-06T07:14:07;17.13;88.32
71436;SHT31;59251;51.326;12.370;2023-08-06T07:16:34;17.34;87.18
71436;SHT31;59251;51.326;12.370;2023-08-06T07:19:02;17.31;86.59
71436;SHT31;59251;51.326;12.370;2023-08-06T07:21:30;17.38;86.42
71436;SHT31;59251;51.326;12.370;2023-08-06T07:23:57;17.38;86.57
71436;SHT31;59251;51.326;12.370;2023-08-06T07:26:24;17.42;86.56
71436;SHT31;59251;51.326;12.370;2023-08-06T07:28:51;17.58;87.04
71436;SHT31;59251;51.326;12.370;2023-08-06T07:31:18;17.62;86.51
71436;SHT31;59251;51.326;12.370;2023-08-06T07:33:45;17.62;86.49
71436;SHT31;59251;51.326;12.370;2023-08-06T07:36:14;17.68;86.17
71436;SHT31;59251;51.326;12.370;2023-08-06T07:38:41;17.67;86.34
71436;SHT31;59251;51.326;12.370;2023-08-06T07:41:08;17.75;86.18
71436;SHT31;59251;51.326;12.370;2023-08-06T07:43:35;17.86;85.75
71436;SHT31;59251;51.326;12.370;2023-08-06T07:46:02;17.93;86.02
71436;SHT31;59251;51.326;12.370;2023-08-06T07:48:29;17.88;85.60
71436;SHT31;59251;51.326;12.370;2023-08-06T07:50:56;18.00;85.37
71436;SHT31;59251;51.326;12.370;2023-08-06T07:53:25;17.99;85.05
71436;SHT31;59251;51.326;12.370;2023-08-06T07:55:54;18.00;84.71
71436;SHT31;59251;51.326;12.370;2023-08-06T07:58:22;18.13;84.65
71436;SHT31;59251;51.326;12.370;2023-08-06T08:00:49;18.12;83.61
71436;SHT31;59251;51.326;12.370;2023-08-06T08:03:16;18.00;83.31
71436;SHT31;59251;51.326;12.370;2023-08-06T08:05:43;17.99;83.41
71436;SHT31;59251;51.326;12.370;2023-08-06T08:08:10;17.98;83.52
71436;SHT31;59251;51.326;12.370;2023-08-06T08:10:38;18.23;83.52
71436;SHT31;59251;51.326;12.370;2023-08-06T08:13:05;18.34;81.88
71436;SHT31;59251;51.326;12.370;2023-08-06T08:15:32;18.50;82.03
71436;SHT31;59251;51.326;12.370;2023-08-06T08:17:59;18.58;82.18
71436;SHT31;59251;51.326;12.370;2023-08-06T08:20:26;18.60;82.92
71436;SHT31;59251;51.326;12.370;2023-08-06T08:22:57;18.47;83.34
71436;SHT31;59251;51.326;12.370;2023-08-06T08:25:24;18.58;82.98
71436;SHT31;59251;51.326;12.370;2023-08-06T08:27:52;18.75;82.36
71436;SHT31;59251;51.326;12.370;2023-08-06T08:30:19;18.79;82.61
71436;SHT31;59251;51.326;12.370;2023-08-06T08:32:46;18.87;82.33
71436;SHT31;59251;51.326;12.370;2023-08-06T08:35:12;18.61;82.63
71436;SHT31;59251;51.326;12.370;2023-08-06T08:37:40;18.95;82.09
71436;SHT31;59251;51.326;12.370;2023-08-06T08:40:08;18.98;81.47
71436;SHT31;59251;51.326;12.370;2023-08-06T08:42:35;18.98;81.62
71436;SHT31;59251;51.326;12.370;2023-08-06T08:45:04;19.11;81.18
71436;SHT31;59251;51.326;12.370;2023-08-06T08:47:33;19.12;81.20
71436;SHT31;59251;51.326;12.370;2023-08-06T08:50:00;19.02;81.53
71436;SHT31;59251;51.326;12.370;2023-08-06T08:52:28;19.50;80.50
71436;SHT31;59251;51.326;12.370;2023-08-06T08:54:57;19.36;80.62
71436;SHT31;59251;51.326;12.370;2023-08-06T08:57:24;19.66;79.66
71436;SHT31;59251;51.326;12.370;2023-08-06T08:59:51;19.74;79.40
71436;SHT31;59251;51.326;12.370;2023-08-06T09:02:21;19.87;78.92
71436;SHT31;59251;51.326;12.370;2023-08-06T09:04:48;19.81;79.38
71436;SHT31;59251;51.326;12.370;2023-08-06T09:07:18;19.92;79.15
71436;SHT31;59251;51.326;12.370;2023-08-06T09:09:47;20.09;78.63
71436;SHT31;59251;51.326;12.370;2023-08-06T09:12:15;20.24;78.63
71436;SHT31;59251;51.326;12.370;2023-08-06T09:14:43;20.32;78.49
71436;SHT31;59251;51.326;12.370;2023-08-06T09:17:10;20.46;77.85
71436;SHT31;59251;51.326;12.370;2023-08-06T09:19:41;20.52;76.89
71436;SHT31;59251;51.326;12.370;2023-08-06T09:22:11;20.55;77.17
71436;SHT31;59251;51.326;12.370;2023-08-06T09:24:39;20.35;77.30
71436;SHT31;59251;51.326;12.370;2023-08-06T09:27:10;20.53;76.98
71436;SHT31;59251;51.326;12.370;2023-08-06T09:29:40;20.53;76.87
71436;SHT31;59251;51.326;12.370;2023-08-06T09:32:08;20.67;76.18
71436;SHT31;59251;51.326;12.370;2023-08-06T09:34:35;20.79;75.73
71436;SHT31;59251;51.326;12.370;2023-08-06T09:37:03;20.42;76.91
71436;SHT31;59251;51.326;12.370;2023-08-06T09:39:30;20.47;76.72
71436;SHT31;59251;51.326;12.370;2023-08-06T09:41:58;20.17;75.90
71436;SHT31;59251;51.326;12.370;2023-08-06T09:44:26;20.50;75.84
71436;SHT31;59251;51.326;12.370;2023-08-06T09:46:54;20.79;74.24
71436;SHT31;59251;51.326;12.370;2023-08-06T09:49:26;20.80;73.73
71436;SHT31;59251;51.326;12.370;2023-08-06T09:51:54;20.93;73.19
71436;SHT31;59251;51.326;12.370;2023-08-06T09:54:25;21.17;72.81
71436;SHT31;59251;51.326;12.370;2023-08-06T09:56:54;20.95;73.22
71436;SHT31;59251;51.326;12.370;2023-08-06T09:59:22;21.38;72.52
71436;SHT31;59251;51.326;12.370;2023-08-06T10:01:49;21.27;73.05
71436;SHT31;59251;51.326;12.370;2023-08-06T10:04:16;21.30;73.60
71436;SHT31;59251;51.326;12.370;2023-08-06T10:06:46;21.04;73.89
71436;SHT31;59251;51.326;12.370;2023-08-06T10:09:14;21.04;74.46
71436;SHT31;59251;51.326;12.370;2023-08-06T10:11:42;21.39;73.24
71436;SHT31;59251;51.326;12.370;2023-08-06T10:14:16;21.42;73.23
71436;SHT31;59251;51.326;12.370;2023-08-06T10:16:45;21.70;73.10
71436;SHT31;59251;51.326;12.370;2023-08-06T10:19:13;21.61;71.64
71436;SHT31;59251;51.326;12.370;2023-08-06T10:21:42;21.80;70.59
71436;SHT31;59251;51.326;12.370;2023-08-06T10:24:45;21.86;71.22
71436;SHT31;59251;51.326;12.370;2023-08-06T10:27:13;22.17;70.33
71436;SHT31;59251;51.326;12.370;2023-08-06T10:29:40;22.44;69.63
71436;SHT31;59251;51.326;12.370;2023-08-06T10:32:06;22.20;70.38
71436;SHT31;59251;51.326;12.370;2023-08-06T10:34:55;22.03;70.39
71436;SHT31;59251;51.326;12.370;2023-08-06T10:37:23;22.43;69.61
71436;SHT31;59251;51.326;12.370;2023-08-06T10:39:50;22.17;70.37
71436;SHT31;59251;51.326;12.370;2023-08-06T10:42:29;21.73;71.51
71436;SHT31;59251;51.326;12.370;2023-08-06T10:45:17;21.67;71.33
71436;SHT31;59251;51.326;12.370;2023-08-06T10:47:45;22.24;69.88
71436;SHT31;59251;51.326;12.370;2023-08-06T10:50:13;22.10;70.84
71436;SHT31;59251;51.326;12.370;2023-08-06T10:52:42;21.92;70.72
71436;SHT31;59251;51.326;12.370;2023-08-06T10:55:09;22.44;69.38
71436;SHT31;59251;51.326;12.370;2023-08-06T10:57:37;22.62;68.89
71436;SHT31;59251;51.326;12.370;2023-08-06T11:00:05;22.55;68.90
71436;SHT31;59251;51.326;12.370;2023-08-06T11:02:33;22.44;69.91
71436;SHT31;59251;51.326;12.370;2023-08-06T11:05:05;22.18;69.81
71436;SHT31;59251;51.326;12.370;2023-08-06T11:07:32;22.43;69.12
71436;SHT31;59251;51.326;12.370;2023-08-06T11:10:01;22.47;69.62
71436;SHT31;59251;51.326;12.370;2023-08-06T11:12:29;22.61;69.33
71436;SHT31;59251;51.326;12.370;2023-08-06T11:14:57;22.71;69.03
71436;SHT31;59251;51.326;12.370;2023-08-06T11:17:24;23.00;68.44
71436;SHT31;59251;51.326;12.370;2023-08-06T11:19:51;23.10;67.63
71436;SHT31;59251;51.326;12.370;2023-08-06T11:22:19;22.55;68.62
71436;SHT31;59251;51.326;12.370;2023-08-06T11:24:46;22.75;68.74
71436;SHT31;59251;51.326;12.370;2023-08-06T11:27:14;22.73;68.63
71436;SHT31;59251;51.326;12.370;2023-08-06T11:29:41;23.02;68.13
71436;SHT31;59251;51.326;12.370;2023-08-06T11:32:09;22.36;68.59
71436;SHT31;59251;51.326;12.370;2023-08-06T11:34:36;22.25;69.77
71436;SHT31;59251;51.326;12.370;2023-08-06T11:37:04;22.04;69.17
71436;SHT31;59251;51.326;12.370;2023-08-06T11:39:31;22.28;68.86
71436;SHT31;59251;51.326;12.370;2023-08-06T11:41:58;22.61;68.22
71436;SHT31;59251;51.326;12.370;2023-08-06T11:44:29;22.72;68.08
71436;SHT31;59251;51.326;12.370;2023-08-06T11:46:56;23.00;66.85
71436;SHT31;59251;51.326;12.370;2023-08-06T11:49:39;23.12;67.80
71436;SHT31;59251;51.326;12.370;2023-08-06T11:52:17;22.81;68.86
71436;SHT31;59251;51.326;12.370;2023-08-06T11:54:46;22.88;67.69
71436;SHT31;59251;51.326;12.370;2023-08-06T11:57:13;23.53;66.11
71436;SHT31;59251;51.326;12.370;2023-08-06T11:59:40;23.46;66.43
71436;SHT31;59251;51.326;12.370;2023-08-06T12:02:09;23.03;65.47
71436;SHT31;59251;51.326;12.370;2023-08-06T12:05:11;22.91;65.77
71436;SHT31;59251;51.326;12.370;2023-08-06T12:07:40;23.17;65.76
71436;SHT31;59251;51.326;12.370;2023-08-06T12:10:07;22.92;66.49
71436;SHT31;59251;51.326;12.370;2023-08-06T12:12:34;23.58;64.78
71436;SHT31;59251;51.326;12.370;2023-08-06T12:15:01;24.18;63.46
71436;SHT31;59251;51.326;12.370;2023-08-06T12:17:29;24.47;62.53
71436;SHT31;59251;51.326;12.370;2023-08-06T12:19:56;24.08;62.38
71436;SHT31;59251;51.326;12.370;2023-08-06T12:22:24;24.30;61.66
71436;SHT31;59251;51.326;12.370;2023-08-06T12:24:50;24.73;61.56
71436;SHT31;59251;51.326;12.370;2023-08-06T12:27:17;24.88;60.99
71436;SHT31;59251;51.326;12.370;2023-08-06T12:29:45;25.19;61.09
71436;SHT31;59251;51.326;12.370;2023-08-06T12:32:13;25.32;58.60
71436;SHT31;59251;51.326;12.370;2023-08-06T12:34:41;25.50;58.65
71436;SHT31;59251;51.326;12.370;2023-08-06T12:37:08;24.59;59.94
71436;SHT31;59251;51.326;12.370;2023-08-06T12:39:38;25.24;58.70
71436;SHT31;59251;51.326;12.370;2023-08-06T12:42:08;24.76;59.14
71436;SHT31;59251;51.326;12.370;2023-08-06T12:44:36;24.74;58.94
71436;SHT31;59251;51.326;12.370;2023-08-06T12:47:02;23.88;61.50
71436;SHT31;59251;51.326;12.370;2023-08-06T12:49:29;24.33;60.95
71436;SHT31;59251;51.326;12.370;2023-08-06T12:51:57;23.72;62.50
71436;SHT31;59251;51.326;12.370;2023-08-06T12:54:25;23.74;62.50
71436;SHT31;59251;51.326;12.370;2023-08-06T12:56:53;24.05;61.70
71436;SHT31;59251;51.326;12.370;2023-08-06T12:59:20;23.88;61.65
71436;SHT31;59251;51.326;12.370;2023-08-06T13:01:47;23.49;62.73
71436;SHT31;59251;51.326;12.370;2023-08-06T13:04:14;23.37;62.76
71436;SHT31;59251;51.326;12.370;2023-08-06T13:06:41;23.24;63.49
71436;SHT31;59251;51.326;12.370;2023-08-06T13:09:08;23.03;63.54
71436;SHT31;59251;51.326;12.370;2023-08-06T13:11:35;22.58;65.80
71436;SHT31;59251;51.326;12.370;2023-08-06T13:14:08;22.34;66.50
71436;SHT31;59251;51.326;12.370;2023-08-06T13:16:36;22.55;66.23
71436;SHT31;59251;51.326;12.370;2023-08-06T13:19:04;22.25;67.54
71436;SHT31;59251;51.326;12.370;2023-08-06T13:21:33;22.30;66.48
71436;SHT31;59251;51.326;12.370;2023-08-06T13:24:00;22.24;67.95
71436;SHT31;59251;51.326;12.370;2023-08-06T13:26:28;22.33;67.65
71436;SHT31;59251;51.326;12.370;2023-08-06T13:28:56;22.54;66.18
71436;SHT31;59251;51.326;12.370;2023-08-06T13:31:24;22.79;65.77
71436;SHT31;59251;51.326;12.370;2023-08-06T13:33:51;23.00;64.75
71436;SHT31;59251;51.326;12.370;2023-08-06T13:36:19;23.74;62.46
71436;SHT31;59251;51.326;12.370;2023-08-06T13:38:46;24.88;60.42
71436;SHT31;59251;51.326;12.370;2023-08-06T13:41:12;26.90;56.09
71436;SHT31;59251;51.326;12.370;2023-08-06T13:43:39;26.48;56.43
71436;SHT31;59251;51.326;12.370;2023-08-06T13:46:06;27.33;54.51
71436;SHT31;59251;51.326;12.370;2023-08-06T13:48:34;27.65;54.59
71436;SHT31;59251;51.326;12.370;2023-08-06T13:51:01;27.93;53.55
71436;SHT31;59251;51.326;12.370;2023-08-06T13:53:28;28.33;52.49
71436;SHT31;59251;51.326;12.370;2023-08-06T13:55:55;28.71;52.47
71436;SHT31;59251;51.326;12.370;2023-08-06T13:58:22;29.32;50.89
71436;SHT31;59251;51.326;12.370;2023-08-06T14:00:49;30.24;49.31
71436;SHT31;59251;51.326;12.370;2023-08-06T14:03:18;30.73;48.03
71436;SHT31;59251;51.326;12.370;2023-08-06T14:05:46;30.55;48.55
71436;SHT31;59251;51.326;12.370;2023-08-06T14:08:13;29.35;49.55
71436;SHT31;59251;51.326;12.370;2023-08-06T14:10:40;28.92;51.30
71436;SHT31;59251;51.326;12.370;2023-08-06T14:13:07;28.79;51.03
71436;SHT31;59251;51.326;12.370;2023-08-06T14:15:33;28.65;50.81
71436;SHT31;59251;51.326;12.370;2023-08-06T14:18:00;28.39;51.68
71436;SHT31;59251;51.326;12.370;2023-08-06T14:20:27;27.26;52.86
71436;SHT31;59251;51.326;12.370;2023-08-06T14:22:55;27.43;53.49
71436;SHT31;59251;51.326;12.370;2023-08-06T14:25:22;28.30;50.86
71436;SHT31;59251;51.326;12.370;2023-08-06T14:27:49;28.47;50.07
71436;SHT31;59251;51.326;12.370;2023-08-06T14:30:15;28.69;49.66
71436;SHT31;59251;51.326;12.370;2023-08-06T14:32:42;29.05;49.19
71436;SHT31;59251;51.326;12.370;2023-08-06T14:35:09;30.36;47.16
71436;SHT31;59251;51.326;12.370;2023-08-06T14:37:35;29.40;48.65
71436;SHT31;59251;51.326;12.370;2023-08-06T14:40:04;30.07;46.56
71436;SHT31;59251;51.326;12.370;2023-08-06T14:42:31;29.81;47.27
71436;SHT31;59251;51.326;12.370;2023-08-06T14:44:57;29.42;47.97
71436;SHT31;59251;51.326;12.370;2023-08-06T14:47:24;29.12;48.47
71436;SHT31;59251;51.326;12.370;2023-08-06T14:49:51;28.71;48.09
71436;SHT31;59251;51.326;12.370;2023-08-06T14:52:18;29.53;46.84
71436;SHT31;59251;51.326;12.370;2023-08-06T14:54:44;30.11;45.70
71436;SHT31;59251;51.326;12.370;2023-08-06T14:57:13;30.18;45.82
71436;SHT31;59251;51.326;12.370;2023-08-06T14:59:40;28.92;47.14
71436;SHT31;59251;51.326;12.370;2023-08-06T15:02:06;27.17;51.05
71436;SHT31;59251;51.326;12.370;2023-08-06T15:04:33;27.78;50.17
71436;SHT31;59251;51.326;12.370;2023-08-06T15:07:00;27.52;50.17
71436;SHT31;59251;51.326;12.370;2023-08-06T15:09:26;27.17;51.32
71436;SHT31;59251;51.326;12.370;2023-08-06T15:11:53;26.58;51.69
71436;SHT31;59251;51.326;12.370;2023-08-06T15:14:21;26.49;52.59
71436;SHT31;59251;51.326;12.370;2023-08-06T15:16:48;26.41;53.36
71436;SHT31;59251;51.326;12.370;2023-08-06T15:19:16;27.18;51.68